createdAt,value
2018-06-21T00:00:31.949Z,19.85
2018-06-21T00:03:02.928Z,19.79
2018-06-21T00:05:34.157Z,19.67
2018-06-21T00:08:05.386Z,19.64
2018-06-21T00:10:36.676Z,19.59
2018-06-21T00:13:07.918Z,19.60
2018-06-21T00:15:39.996Z,19.64
2018-06-21T00:18:11.809Z,19.68
2018-06-21T00:20:43.098Z,19.72
2018-06-21T00:23:14.250Z,19.69
2018-06-21T00:25:45.372Z,19.72
2018-06-21T00:28:16.450Z,19.73
2018-06-21T00:30:47.649Z,19.76
2018-06-21T00:33:19.280Z,19.72
2018-06-21T00:35:51.370Z,19.68
2018-06-21T00:38:22.588Z,19.61
2018-06-21T00:40:53.710Z,19.60
2018-06-21T00:43:24.874Z,19.58
2018-06-21T00:45:56.152Z,19.57
2018-06-21T00:48:27.218Z,19.53
2018-06-21T00:50:58.878Z,19.47
2018-06-21T00:53:31.037Z,19.40
2018-06-21T00:56:16.792Z,19.33
2018-06-21T00:58:48.662Z,19.28
2018-06-21T01:01:20.152Z,19.27
2018-06-21T01:03:52.178Z,19.27
2018-06-21T01:06:23.127Z,19.30
2018-06-21T01:08:54.197Z,19.30
2018-06-21T01:11:25.439Z,19.18
2018-06-21T01:13:57.181Z,19.12
2018-06-21T01:16:28.558Z,19.08
2018-06-21T01:19:00.063Z,19.05
2018-06-21T01:21:31.959Z,19.06
2018-06-21T01:24:03.080Z,19.06
2018-06-21T01:26:33.647Z,19.05
2018-06-21T01:29:04.875Z,19.10
2018-06-21T01:31:36.056Z,19.06
2018-06-21T01:34:07.112Z,18.98
2018-06-21T01:36:38.592Z,18.90
2018-06-21T01:39:10.451Z,18.89
2018-06-21T01:41:41.729Z,18.85
2018-06-21T01:44:13.744Z,18.85
2018-06-21T01:46:45.420Z,18.89
2018-06-21T01:49:16.602Z,18.94
2018-06-21T01:51:48.652Z,18.95
2018-06-21T01:54:19.763Z,18.88
2018-06-21T01:56:50.903Z,18.84
2018-06-21T01:59:22.179Z,18.81
2018-06-21T02:01:54.432Z,18.78
2018-06-21T02:04:25.973Z,18.80
2018-06-21T02:06:57.849Z,18.82
2018-06-21T02:09:29.051Z,18.80
2018-06-21T02:12:00.341Z,18.74
2018-06-21T02:14:31.280Z,18.75
2018-06-21T02:17:02.786Z,18.75
2018-06-21T02:19:35.179Z,18.73
2018-06-21T02:22:06.287Z,18.70
2018-06-21T02:24:37.442Z,18.60
2018-06-21T02:27:08.603Z,18.51
2018-06-21T02:29:41.522Z,18.58
2018-06-21T02:32:13.064Z,18.50
2018-06-21T02:34:45.802Z,18.49
2018-06-21T02:37:17.716Z,18.40
2018-06-21T02:39:48.694Z,18.37
2018-06-21T02:42:19.821Z,18.32
2018-06-21T02:44:50.987Z,18.28
2018-06-21T02:47:22.455Z,18.26
2018-06-21T02:49:53.715Z,18.23
2018-06-21T02:52:25.077Z,18.22
2018-06-21T02:54:56.234Z,18.17
2018-06-21T02:57:27.442Z,18.13
2018-06-21T02:59:59.704Z,18.09
2018-06-21T03:02:30.898Z,18.11
2018-06-21T03:05:02.099Z,18.10
2018-06-21T03:07:33.259Z,18.12
2018-06-21T03:10:05.223Z,18.14
2018-06-21T03:12:36.234Z,18.09
2018-06-21T03:15:07.253Z,18.03
2018-06-21T03:17:39.098Z,17.99
2018-06-21T03:20:09.971Z,17.99
2018-06-21T03:22:40.664Z,18.04
2018-06-21T03:25:12.281Z,18.05
2018-06-21T03:27:44.408Z,18.05
2018-06-21T03:30:15.343Z,18.03
2018-06-21T03:32:46.998Z,17.97
2018-06-21T03:35:18.015Z,17.96
2018-06-21T03:37:49.163Z,17.89
2018-06-21T03:40:20.523Z,17.86
2018-06-21T03:42:51.989Z,17.89
2018-06-21T03:45:23.120Z,17.95
2018-06-21T03:47:53.572Z,18.03
2018-06-21T03:50:24.355Z,18.10
2018-06-21T03:52:56.166Z,18.15
2018-06-21T03:55:27.401Z,18.15
2018-06-21T03:57:58.543Z,18.25
2018-06-21T04:00:30.407Z,18.38
2018-06-21T04:03:02.446Z,18.45
2018-06-21T04:05:33.691Z,18.48
2018-06-21T04:08:06.000Z,18.59
2018-06-21T04:10:37.231Z,18.66
2018-06-21T04:13:08.640Z,18.76
2018-06-21T04:15:40.101Z,18.89
2018-06-21T04:18:11.320Z,18.97
2018-06-21T04:20:42.753Z,19.04
2018-06-21T04:23:15.460Z,19.05
2018-06-21T04:25:47.053Z,18.99
2018-06-21T04:28:17.949Z,18.95
2018-06-21T04:30:49.312Z,19.00
2018-06-21T04:33:20.561Z,18.99
2018-06-21T04:35:51.765Z,19.04
2018-06-21T04:38:22.805Z,19.11
2018-06-21T04:40:55.379Z,19.21
2018-06-21T04:43:26.347Z,19.33
2018-06-21T04:45:57.444Z,19.40
2018-06-21T04:48:28.950Z,19.46
2018-06-21T04:51:00.098Z,19.54
2018-06-21T04:53:31.255Z,19.62
2018-06-21T04:56:02.482Z,19.72
2018-06-21T04:58:33.893Z,19.82
2018-06-21T05:01:04.886Z,19.87
2018-06-21T05:03:36.259Z,19.81
2018-06-21T05:06:07.396Z,19.85
2018-06-21T05:08:40.032Z,19.91
2018-06-21T05:11:11.333Z,19.78
2018-06-21T05:13:42.684Z,19.83
2018-06-21T05:16:13.854Z,19.86
2018-06-21T05:18:45.218Z,19.90
2018-06-21T05:21:16.465Z,20.13
2018-06-21T05:23:48.796Z,20.33
2018-06-21T05:26:19.544Z,20.49
2018-06-21T05:28:50.702Z,20.53
2018-06-21T05:31:22.155Z,20.76
2018-06-21T05:33:54.106Z,21.01
2018-06-21T05:36:25.157Z,21.20
2018-06-21T05:38:57.147Z,21.20
2018-06-21T05:41:28.896Z,21.44
2018-06-21T05:43:59.997Z,21.66
2018-06-21T05:46:31.388Z,21.58
2018-06-21T05:49:01.935Z,21.66
2018-06-21T05:51:33.013Z,21.68
2018-06-21T05:54:04.278Z,21.74
2018-06-21T05:56:35.753Z,21.87
2018-06-21T05:59:07.267Z,21.88
2018-06-21T06:01:38.788Z,21.90
2018-06-21T06:04:10.893Z,21.98
2018-06-21T06:06:42.318Z,22.06
2018-06-21T06:09:14.187Z,22.25
2018-06-21T06:11:46.002Z,22.43
2018-06-21T06:14:17.182Z,22.57
2018-06-21T06:16:47.977Z,22.75
2018-06-21T06:19:19.140Z,22.79
2018-06-21T06:21:51.162Z,23.07
2018-06-21T06:24:22.694Z,24.08
2018-06-21T06:26:55.015Z,24.76
2018-06-21T06:29:28.196Z,25.74
2018-06-21T06:32:00.311Z,26.62
2018-06-21T06:34:31.440Z,26.86
2018-06-21T06:37:02.829Z,26.74
2018-06-21T06:39:33.760Z,25.51
2018-06-21T06:42:05.084Z,26.30
2018-06-21T06:44:37.316Z,27.26
2018-06-21T06:47:09.880Z,27.59
2018-06-21T06:49:41.266Z,28.24
2018-06-21T06:52:14.117Z,28.44
2018-06-21T06:54:45.358Z,28.41
2018-06-21T06:57:17.779Z,28.95
2018-06-21T06:59:49.345Z,29.04
2018-06-21T07:02:21.662Z,29.35
2018-06-21T07:04:52.306Z,29.26
2018-06-21T07:07:23.304Z,28.93
2018-06-21T07:09:56.187Z,29.07
2018-06-21T07:12:27.732Z,29.66
2018-06-21T07:14:59.724Z,29.83
2018-06-21T07:17:30.993Z,29.84
2018-06-21T07:20:03.237Z,29.89
2018-06-21T07:22:34.667Z,27.81
2018-06-21T07:25:06.374Z,29.42
2018-06-21T07:27:38.817Z,29.75
2018-06-21T07:30:10.074Z,29.81
2018-06-21T07:32:41.816Z,30.25
2018-06-21T07:35:13.016Z,28.58
2018-06-21T07:37:44.152Z,29.38
2018-06-21T07:40:15.813Z,28.79
2018-06-21T07:42:47.412Z,29.59
2018-06-21T07:45:19.406Z,29.33
2018-06-21T07:47:50.836Z,28.18
2018-06-21T07:50:22.575Z,28.02
2018-06-21T07:52:54.131Z,27.44
2018-06-21T07:55:25.285Z,29.61
2018-06-21T07:57:56.690Z,30.11
2018-06-21T08:00:28.707Z,30.14
2018-06-21T08:03:00.473Z,30.81
2018-06-21T08:05:31.511Z,31.37
2018-06-21T08:08:06.011Z,29.83
2018-06-21T08:10:40.181Z,30.42
2018-06-21T08:13:12.127Z,31.36
2018-06-21T08:15:46.474Z,32.16
2018-06-21T08:18:19.544Z,32.52
2018-06-21T08:20:56.227Z,32.74
2018-06-21T08:23:32.581Z,32.49
2018-06-21T08:26:05.343Z,33.28
2018-06-21T08:28:38.231Z,31.22
2018-06-21T08:31:10.000Z,32.06
2018-06-21T08:33:41.748Z,33.19
2018-06-21T08:36:13.733Z,33.23
2018-06-21T08:38:45.726Z,32.92
2018-06-21T08:41:17.068Z,33.07
2018-06-21T08:43:49.735Z,32.72
2018-06-21T08:46:22.822Z,33.90
2018-06-21T08:48:55.343Z,33.42
2018-06-21T08:51:28.287Z,33.49
2018-06-21T08:53:59.630Z,31.89
2018-06-21T08:56:31.927Z,33.48
2018-06-21T08:59:04.752Z,34.47
2018-06-21T09:01:37.281Z,35.36
2018-06-21T09:04:08.873Z,36.23
2018-06-21T09:06:40.100Z,35.98
2018-06-21T09:09:11.686Z,35.26
2018-06-21T09:11:43.574Z,35.13
2018-06-21T09:14:15.097Z,34.92
2018-06-21T09:16:47.874Z,33.40
2018-06-21T09:19:20.354Z,34.79
2018-06-21T09:21:51.722Z,35.20
2018-06-21T09:24:23.743Z,35.92
2018-06-21T09:26:57.026Z,36.22
2018-06-21T09:29:28.789Z,35.42
2018-06-21T09:32:02.186Z,33.94
2018-06-21T09:34:35.695Z,35.28
2018-06-21T09:37:07.939Z,35.26
2018-06-21T09:39:45.511Z,30.84
2018-06-21T09:42:23.173Z,31.93
2018-06-21T09:44:59.712Z,33.97
2018-06-21T09:47:37.397Z,33.56
2018-06-21T09:50:18.079Z,33.28
2018-06-21T09:52:53.006Z,31.72
2018-06-21T09:55:27.407Z,34.00
2018-06-21T09:57:59.645Z,35.70
2018-06-21T10:00:36.262Z,36.20
2018-06-21T10:03:07.839Z,36.01
2018-06-21T10:05:40.582Z,36.55
2018-06-21T10:08:12.821Z,36.09
2018-06-21T10:10:44.296Z,36.27
2018-06-21T10:13:16.112Z,35.34
2018-06-21T10:15:47.867Z,33.99
2018-06-21T10:18:20.425Z,34.78
2018-06-21T10:20:53.158Z,35.81
2018-06-21T10:23:25.554Z,36.04
2018-06-21T10:25:57.273Z,36.23
2018-06-21T10:28:27.969Z,37.29
2018-06-21T10:31:00.433Z,37.76
2018-06-21T10:33:31.705Z,38.28
2018-06-21T10:36:06.134Z,38.01
2018-06-21T10:38:44.379Z,38.00
2018-06-21T10:41:15.685Z,38.50
2018-06-21T10:43:47.371Z,37.76
2018-06-21T10:46:20.130Z,34.24
2018-06-21T10:48:53.034Z,34.33
2018-06-21T10:51:25.173Z,35.12
2018-06-21T10:53:55.812Z,36.05
2018-06-21T10:56:27.068Z,35.93
2018-06-21T10:58:58.963Z,35.77
2018-06-21T11:01:30.920Z,36.70
2018-06-21T11:04:02.373Z,37.37
2018-06-21T11:06:38.659Z,37.43
2018-06-21T11:09:10.743Z,38.15
2018-06-21T11:11:43.870Z,37.94
2018-06-21T11:14:15.325Z,38.26
2018-06-21T11:16:46.403Z,36.79
2018-06-21T11:19:17.807Z,36.44
2018-06-21T11:21:49.284Z,36.56
2018-06-21T11:24:21.268Z,37.35
2018-06-21T11:26:56.860Z,38.13
2018-06-21T11:29:28.125Z,37.71
2018-06-21T11:31:59.578Z,37.38
2018-06-21T11:34:30.838Z,32.65
2018-06-21T11:37:04.464Z,31.30
2018-06-21T11:39:35.995Z,32.94
2018-06-21T11:42:07.079Z,33.63
2018-06-21T11:44:38.686Z,34.11
2018-06-21T11:47:10.745Z,31.05
2018-06-21T11:49:42.163Z,30.40
2018-06-21T11:52:14.403Z,27.79
2018-06-21T11:54:46.663Z,26.52
2018-06-21T11:57:17.753Z,26.83
2018-06-21T11:59:49.224Z,27.90
2018-06-21T12:02:21.709Z,27.71
2018-06-21T12:04:53.057Z,27.25
2018-06-21T12:07:28.115Z,27.52
2018-06-21T12:10:00.482Z,27.63
2018-06-21T12:12:32.661Z,27.64
2018-06-21T12:15:03.287Z,28.00
2018-06-21T12:17:34.523Z,28.43
2018-06-21T12:20:05.706Z,28.02
2018-06-21T12:22:36.961Z,30.06
2018-06-21T12:25:08.933Z,29.56
2018-06-21T12:27:40.804Z,28.93
2018-06-21T12:30:11.967Z,29.38
2018-06-21T12:32:43.329Z,28.25
2018-06-21T12:35:16.017Z,27.03
2018-06-21T12:37:47.178Z,26.61
2018-06-21T12:40:18.561Z,26.69
2018-06-21T12:42:52.681Z,26.73
2018-06-21T12:45:24.000Z,26.05
2018-06-21T12:47:56.402Z,25.85
2018-06-21T12:50:27.526Z,25.93
2018-06-21T12:52:58.855Z,26.37
2018-06-21T12:55:33.806Z,26.39
2018-06-21T12:58:05.897Z,26.33
2018-06-21T13:00:38.568Z,26.71
2018-06-21T13:03:11.267Z,26.89
2018-06-21T13:05:44.070Z,27.32
2018-06-21T13:08:25.947Z,27.94
2018-06-21T13:11:07.603Z,28.46
2018-06-21T13:13:39.535Z,28.88
2018-06-21T13:16:11.941Z,29.54
2018-06-21T13:18:43.757Z,29.95
2018-06-21T13:21:17.267Z,29.90
2018-06-21T13:23:48.740Z,29.56
2018-06-21T13:26:20.547Z,29.40
2018-06-21T13:28:52.897Z,29.42
2018-06-21T13:31:24.358Z,29.38
2018-06-21T13:33:55.872Z,29.40
2018-06-21T13:36:27.437Z,29.08
2018-06-21T13:38:59.370Z,28.97
2018-06-21T13:41:30.612Z,28.58
2018-06-21T13:44:01.826Z,28.58
2018-06-21T13:46:34.534Z,28.32
2018-06-21T13:49:06.079Z,28.34
2018-06-21T13:51:37.897Z,28.08
2018-06-21T13:54:10.771Z,28.03
2018-06-21T13:56:43.767Z,27.80
2018-06-21T13:59:15.377Z,27.83
2018-06-21T14:01:47.292Z,27.70
2018-06-21T14:04:19.067Z,27.55
2018-06-21T14:06:50.946Z,27.56
2018-06-21T14:09:22.916Z,27.54
2018-06-21T14:11:55.127Z,27.36
2018-06-21T14:14:26.475Z,27.47
2018-06-21T14:16:57.935Z,27.48
2018-06-21T14:19:29.635Z,27.54
2018-06-21T14:22:00.994Z,27.92
2018-06-21T14:24:34.768Z,27.93
2018-06-21T14:27:06.068Z,28.04
2018-06-21T14:29:37.555Z,28.06
2018-06-21T14:32:09.414Z,28.35
2018-06-21T14:34:45.527Z,28.81
2018-06-21T14:37:18.421Z,28.25
2018-06-21T14:39:50.627Z,28.78
2018-06-21T14:42:22.711Z,29.30
2018-06-21T14:44:54.536Z,29.62
2018-06-21T14:47:26.327Z,29.37
2018-06-21T14:49:58.652Z,29.27
2018-06-21T14:52:30.354Z,29.25
2018-06-21T14:55:01.077Z,29.32
2018-06-21T14:57:33.900Z,28.17
2018-06-21T15:00:06.987Z,28.14
2018-06-21T15:02:38.632Z,28.19
2018-06-21T15:05:10.099Z,27.96
2018-06-21T15:07:41.469Z,27.58
2018-06-21T15:10:13.672Z,27.29
2018-06-21T15:12:45.386Z,27.51
2018-06-21T15:15:18.226Z,27.78
2018-06-21T15:17:49.985Z,27.94
2018-06-21T15:20:21.874Z,27.62
2018-06-21T15:22:53.723Z,27.66
2018-06-21T15:25:25.114Z,27.22
2018-06-21T15:27:59.639Z,27.10
2018-06-21T15:30:32.467Z,27.09
2018-06-21T15:33:03.557Z,26.64
2018-06-21T15:35:36.598Z,26.72
2018-06-21T15:38:09.935Z,26.80
2018-06-21T15:40:41.828Z,26.88
2018-06-21T15:43:14.570Z,26.94
2018-06-21T15:45:46.471Z,27.12
2018-06-21T15:48:21.419Z,27.20
2018-06-21T15:50:54.832Z,26.55
2018-06-21T15:53:25.554Z,26.72
2018-06-21T15:55:56.636Z,26.45
2018-06-21T15:58:28.740Z,26.25
2018-06-21T16:01:00.432Z,26.32
2018-06-21T16:03:32.154Z,26.02
2018-06-21T16:06:04.278Z,26.14
2018-06-21T16:08:35.840Z,26.60
2018-06-21T16:11:06.365Z,26.75
2018-06-21T16:13:39.349Z,26.61
2018-06-21T16:16:12.175Z,26.85
2018-06-21T16:18:43.092Z,26.84
2018-06-21T16:21:14.117Z,26.81
2018-06-21T16:23:44.966Z,27.01
2018-06-21T16:26:16.490Z,26.81
2018-06-21T16:28:49.733Z,26.65
2018-06-21T16:31:21.155Z,26.95
2018-06-21T16:33:53.220Z,26.67
2018-06-21T16:36:24.532Z,26.62
2018-06-21T16:38:56.883Z,26.17
2018-06-21T16:41:28.356Z,26.33
2018-06-21T16:43:59.432Z,26.31
2018-06-21T16:46:31.129Z,26.40
2018-06-21T16:49:02.827Z,26.30
2018-06-21T16:51:35.439Z,26.40
2018-06-21T16:54:06.831Z,26.12
2018-06-21T16:56:38.475Z,25.83
2018-06-21T16:59:08.964Z,26.03
2018-06-21T17:01:40.222Z,26.07
2018-06-21T17:04:11.665Z,26.00
2018-06-21T17:06:44.393Z,25.92
2018-06-21T17:09:16.141Z,25.96
2018-06-21T17:11:47.396Z,25.67
2018-06-21T17:14:18.776Z,25.69
2018-06-21T17:16:50.486Z,25.73
2018-06-21T17:19:23.221Z,25.71
2018-06-21T17:21:54.691Z,25.65
2018-06-21T17:24:27.803Z,25.61
2018-06-21T17:26:58.714Z,25.74
2018-06-21T17:29:30.094Z,25.89
2018-06-21T17:32:01.569Z,25.69
2018-06-21T17:34:33.995Z,25.63
2018-06-21T17:37:05.709Z,25.74
2018-06-21T17:39:39.132Z,25.81
2018-06-21T17:42:10.640Z,25.53
2018-06-21T17:44:42.751Z,25.47
2018-06-21T17:47:13.871Z,25.48
2018-06-21T17:49:46.060Z,25.61
2018-06-21T17:52:17.403Z,25.63
2018-06-21T17:54:48.878Z,25.65
2018-06-21T17:57:23.791Z,25.63
2018-06-21T17:59:55.383Z,25.42
2018-06-21T18:02:27.412Z,25.31
2018-06-21T18:04:59.350Z,25.30
2018-06-21T18:07:30.923Z,25.36
2018-06-21T18:10:02.772Z,25.36
2018-06-21T18:12:35.943Z,25.31
2018-06-21T18:15:07.976Z,25.35
2018-06-21T18:17:39.768Z,25.34
2018-06-21T18:20:13.287Z,25.43
2018-06-21T18:22:45.927Z,25.35
2018-06-21T18:25:20.568Z,25.32
2018-06-21T18:27:55.519Z,25.28
2018-06-21T18:30:27.930Z,25.20
2018-06-21T18:33:00.636Z,25.12
2018-06-21T18:35:32.961Z,25.07
2018-06-21T18:38:05.486Z,25.00
2018-06-21T18:40:38.087Z,24.93
2018-06-21T18:43:10.147Z,24.87
2018-06-21T18:45:42.580Z,24.72
2018-06-21T18:48:15.322Z,24.62
2018-06-21T18:50:48.607Z,24.52
2018-06-21T18:53:21.600Z,24.31
2018-06-21T18:55:54.853Z,24.25
2018-06-21T18:58:27.373Z,24.21
2018-06-21T19:00:59.196Z,24.18
2018-06-21T19:03:31.702Z,24.10
2018-06-21T19:06:04.976Z,24.07
2018-06-21T19:08:43.422Z,23.93
2018-06-21T19:11:21.026Z,23.92
2018-06-21T19:13:53.522Z,23.86
2018-06-21T19:16:26.848Z,23.76
2018-06-21T19:19:00.526Z,23.75
2018-06-21T19:21:33.551Z,23.78
2018-06-21T19:24:06.276Z,23.75
2018-06-21T19:26:40.246Z,23.73
2018-06-21T19:29:17.840Z,23.71
2018-06-21T19:31:54.555Z,23.74
2018-06-21T19:34:30.775Z,23.70
2018-06-21T19:37:05.527Z,23.67
2018-06-21T19:39:46.255Z,23.58
2018-06-21T19:42:20.588Z,23.52
2018-06-21T19:44:53.727Z,23.49
2018-06-21T19:47:31.589Z,23.35
2018-06-21T19:50:05.276Z,23.37
2018-06-21T19:52:38.679Z,23.34
2018-06-21T19:55:14.535Z,23.29
2018-06-21T19:57:47.967Z,23.17
2018-06-21T20:00:37.087Z,23.16
2018-06-21T20:03:21.204Z,23.11
2018-06-21T20:05:57.705Z,23.18
2018-06-21T20:08:32.123Z,23.14
2018-06-21T20:11:11.071Z,23.13
2018-06-21T20:13:51.958Z,23.11
2018-06-21T20:16:28.777Z,22.99
2018-06-21T20:19:08.988Z,22.92
2018-06-21T20:21:43.947Z,22.78
2018-06-21T20:24:21.594Z,22.71
2018-06-21T20:26:59.580Z,22.62
2018-06-21T20:29:33.281Z,22.55
2018-06-21T20:32:07.179Z,22.54
2018-06-21T20:34:47.242Z,22.52
2018-06-21T20:37:26.226Z,22.40
2018-06-21T20:40:05.972Z,22.28
2018-06-21T20:42:45.271Z,22.25
2018-06-21T20:45:25.558Z,22.27
2018-06-21T20:48:04.529Z,22.31
2018-06-21T20:50:44.385Z,22.30
2018-06-21T20:53:20.065Z,22.30
2018-06-21T20:55:53.703Z,22.20
2018-06-21T20:58:29.112Z,22.13
2018-06-21T21:01:05.092Z,22.02
2018-06-21T21:03:38.970Z,21.92
2018-06-21T21:06:16.420Z,21.88
2018-06-21T21:08:53.356Z,21.81
2018-06-21T21:11:28.964Z,21.81
2018-06-21T21:14:03.681Z,21.79
2018-06-21T21:16:38.612Z,21.68
2018-06-21T21:19:12.328Z,21.61
2018-06-21T21:21:51.895Z,21.54
2018-06-21T21:24:25.622Z,21.55
2018-06-21T21:26:57.193Z,21.51
2018-06-21T21:29:29.165Z,21.44
2018-06-21T21:32:00.600Z,21.35
2018-06-21T21:34:32.646Z,21.28
2018-06-21T21:37:05.266Z,21.33
2018-06-21T21:39:36.866Z,21.33
2018-06-21T21:42:09.468Z,21.31
2018-06-21T21:44:41.137Z,21.35
2018-06-21T21:47:12.712Z,21.30
2018-06-21T21:49:44.426Z,21.32
2018-06-21T21:52:16.508Z,21.26
2018-06-21T21:54:47.833Z,21.24
2018-06-21T21:57:19.997Z,21.15
2018-06-21T21:59:51.604Z,21.06
2018-06-21T22:02:22.388Z,21.00
2018-06-21T22:04:54.935Z,20.87
2018-06-21T22:07:27.681Z,20.80
2018-06-21T22:10:00.704Z,20.91
2018-06-21T22:12:33.279Z,20.89
2018-06-21T22:15:06.308Z,20.89
2018-06-21T22:17:37.797Z,20.76
2018-06-21T22:20:09.677Z,20.65
2018-06-21T22:22:41.589Z,20.54
2018-06-21T22:25:13.610Z,20.30
2018-06-21T22:27:45.388Z,20.17
2018-06-21T22:30:16.846Z,20.12
2018-06-21T22:32:48.157Z,20.16
2018-06-21T22:35:19.931Z,20.23
2018-06-21T22:37:51.765Z,20.26
2018-06-21T22:40:24.306Z,20.31
2018-06-21T22:42:55.086Z,20.37
2018-06-21T22:45:27.417Z,20.35
2018-06-21T22:47:58.826Z,20.30
2018-06-21T22:50:30.089Z,20.32
2018-06-21T22:53:02.551Z,20.22
2018-06-21T22:55:34.641Z,20.21
2018-06-21T22:58:06.931Z,20.20
2018-06-21T23:00:38.775Z,20.21
2018-06-21T23:03:10.100Z,20.18
2018-06-21T23:05:41.252Z,20.18
2018-06-21T23:08:13.017Z,20.17
2018-06-21T23:10:44.028Z,20.07
2018-06-21T23:13:14.878Z,20.04
2018-06-21T23:15:46.141Z,19.96
2018-06-21T23:18:32.193Z,19.99
2018-06-21T23:21:03.393Z,20.02
2018-06-21T23:23:34.473Z,20.06
2018-06-21T23:26:05.702Z,20.10
2018-06-21T23:28:37.191Z,20.03
2018-06-21T23:31:08.612Z,20.12
2018-06-21T23:33:40.902Z,20.10
2018-06-21T23:36:12.774Z,20.00
2018-06-21T23:38:44.822Z,19.84
2018-06-21T23:41:15.969Z,19.71
2018-06-21T23:43:47.169Z,19.70
2018-06-21T23:46:18.230Z,19.57
2018-06-21T23:48:49.507Z,19.47
2018-06-21T23:51:21.464Z,19.43
2018-06-21T23:53:52.568Z,19.46
2018-06-21T23:56:23.534Z,19.45
2018-06-21T23:58:54.739Z,19.46
